Time;durP1;ratioP1;P1;durP2;ratioP2;P2;SDS_P1;SDS_P2;PMS_P1;PMS_P2;Temp;Humidity;BMP_temperature;BMP_pressure;BME280_temperature;BME280_humidity;BME280_pressure;Samples;Min_cycle;Max_cycle;Signal;HPM_P1;HPM_P2
2019/09/14 05:24:14;;;;;;;5.2;2.8;;;;;;;16.95;89.63574;973.9777;;;;
2019/09/14 05:29:31;;;;;;;4;3.5;;;;;;;16.98;89.3252;974.012;;;;
2019/09/14 05:32:14;;;;;;;4.5;3.6;;;;;;;16.94;89.54004;973.9802;;;;
2019/09/14 05:34:22;;;;;;;5.5;4.3;;;;;;;16.66;91.43262;974.0092;;;;
2019/09/14 05:36:46;;;;;;;4.8;4.1;;;;;;;16.61;91.56152;974.0602;;;;
2019/09/14 05:39:11;;;;;;;5.1;4.2;;;;;;;16.73;90.57227;974.0559;;;;
2019/09/14 05:41:36;;;;;;;5.5;4.5;;;;;;;16.57;91.78711;974.014;;;;
2019/09/14 05:44:01;;;;;;;4.9;4.2;;;;;;;16.53;91.89453;974.0669;;;;
2019/09/14 05:46:26;;;;;;;5.3;4.2;;;;;;;16.5;92.15723;974.0836;;;;
2019/09/14 05:48:51;;;;;;;5.2;4.2;;;;;;;16.49;92.52637;974.1016;;;;
2019/09/14 05:51:16;;;;;;;5.8;4.2;;;;;;;16.47;93.13184;974.1216;;;;
2019/09/14 05:53:42;;;;;;;5.5;4.3;;;;;;;16.51;92.38086;974.1481;;;;
2019/09/14 05:56:07;;;;;;;4.4;4;;;;;;;16.5;92.32031;974.1486;;;;
2019/09/14 05:58:32;;;;;;;4.8;4.2;;;;;;;16.59;92.22266;974.1478;;;;
2019/09/14 06:00:57;;;;;;;4.2;3.8;;;;;;;16.55;92.7168;974.2336;;;;
2019/09/14 06:03:22;;;;;;;5.1;4.3;;;;;;;16.49;93.38965;974.197;;;;
2019/09/14 06:05:47;;;;;;;5.2;4.5;;;;;;;16.52;93.06152;974.2405;;;;
2019/09/14 06:08:12;;;;;;;5;4.4;;;;;;;16.64;92.51465;974.2305;;;;
2019/09/14 06:10:37;;;;;;;5.5;4.3;;;;;;;16.74;93.09375;974.2725;;;;
2019/09/14 06:13:02;;;;;;;5.8;4.2;;;;;;;16.78;91.9375;974.3331;;;;
2019/09/14 06:15:27;;;;;;;4.6;4.1;;;;;;;16.82;91.61816;974.3403;;;;
2019/09/14 06:18:10;;;;;;;5.9;4.2;;;;;;;16.92;90.98438;974.3642;;;;
2019/09/14 06:20:18;;;;;;;5.2;4.4;;;;;;;16.92;91.67383;974.3403;;;;
2019/09/14 06:22:43;;;;;;;5.3;4.4;;;;;;;16.91;91.76465;974.3189;;;;
2019/09/14 06:25:17;;;;;;;6.1;4.5;;;;;;;16.87;92.29297;974.3224;;;;
2019/09/14 06:27:42;;;;;;;8.5;4.4;;;;;;;17.03;91.40234;974.3384;;;;
2019/09/14 06:30:08;;;;;;;5.3;4.4;;;;;;;16.99;91.29102;974.3444;;;;
2019/09/14 06:32:33;;;;;;;6.8;4.4;;;;;;;17.18;90.60645;974.2849;;;;
2019/09/14 06:34:58;;;;;;;7.1;4.5;;;;;;;17.19;90.18945;974.2587;;;;
2019/09/14 06:37:23;;;;;;;5.1;4.4;;;;;;;17.15;90.86719;974.2605;;;;
2019/09/14 06:39:49;;;;;;;5.2;4.3;;;;;;;17.24;89.43848;974.2935;;;;
2019/09/14 06:42:14;;;;;;;5.2;4.1;;;;;;;17.23;90.99121;974.3716;;;;
2019/09/14 06:44:39;;;;;;;5.3;4.4;;;;;;;17.32;89.49023;974.4202;;;;
2019/09/14 06:47:04;;;;;;;9.3;4.4;;;;;;;17.23;90.14941;974.4392;;;;
2019/09/14 06:49:29;;;;;;;6;4.2;;;;;;;17.29;89.8916;974.4325;;;;
2019/09/14 06:51:55;;;;;;;6.5;4.5;;;;;;;17.39;89.82031;974.4417;;;;
2019/09/14 06:54:20;;;;;;;4.8;4.3;;;;;;;17.31;89.91895;974.4841;;;;
2019/09/14 06:56:45;;;;;;;5.2;4.7;;;;;;;17.36;89.90625;974.4543;;;;
2019/09/14 06:59:10;;;;;;;5.1;4.6;;;;;;;17.52;88.67676;974.4495;;;;
2019/09/14 07:01:35;;;;;;;4.8;4.3;;;;;;;17.6;88.36328;974.4385;;;;
2019/09/14 07:04:01;;;;;;;5.4;4.8;;;;;;;17.52;89.14453;974.4347;;;;
2019/09/14 07:06:26;;;;;;;6;4.8;;;;;;;17.47;89.51953;974.3879;;;;
2019/09/14 07:08:51;;;;;;;6.2;4.8;;;;;;;17.51;88.87207;974.4058;;;;
2019/09/14 07:11:16;;;;;;;5.4;4.9;;;;;;;17.51;88.70996;974.3719;;;;
2019/09/14 07:13:41;;;;;;;5.3;4.6;;;;;;;17.52;89.21484;974.3836;;;;
2019/09/14 07:16:06;;;;;;;5.6;4.5;;;;;;;17.51;89.18945;974.3844;;;;
2019/09/14 07:18:31;;;;;;;5.1;4.6;;;;;;;17.61;88.44922;974.3083;;;;
2019/09/14 07:20:56;;;;;;;5.1;4.6;;;;;;;17.63;88.32422;974.3112;;;;
2019/09/14 07:23:21;;;;;;;5.2;4.7;;;;;;;17.64;88.55957;974.2889;;;;
2019/09/14 07:25:46;;;;;;;5.5;4.7;;;;;;;17.55;88.78906;974.2933;;;;
2019/09/14 07:28:11;;;;;;;6.5;4.8;;;;;;;17.5;90.2168;974.4288;;;;
2019/09/14 07:30:36;;;;;;;5.9;5;;;;;;;17.52;89.9043;974.4528;;;;
2019/09/14 07:33:02;;;;;;;4.8;4.3;;;;;;;17.66;89.65137;974.5021;;;;
2019/09/14 07:35:27;;;;;;;5.4;4.9;;;;;;;17.63;88.79199;974.5042;;;;
2019/09/14 07:37:52;;;;;;;5.7;4.5;;;;;;;17.72;88.7998;974.5089;;;;
2019/09/14 07:40:17;;;;;;;5;4.4;;;;;;;17.76;88.37402;974.5011;;;;
2019/09/14 07:42:42;;;;;;;6.4;4.5;;;;;;;17.73;89.67773;974.5129;;;;
2019/09/14 07:45:07;;;;;;;6.8;5.1;;;;;;;17.84;88.67188;974.5002;;;;
2019/09/14 07:47:32;;;;;;;6.6;4.9;;;;;;;17.93;88.30176;974.5229;;;;
2019/09/14 07:49:57;;;;;;;7;5;;;;;;;18.03;87.39844;974.5037;;;;
2019/09/14 07:52:22;;;;;;;5.3;4.1;;;;;;;18.17;87.87012;974.4686;;;;
2019/09/14 07:54:47;;;;;;;4.9;4.4;;;;;;;18.3;86.16309;974.4347;;;;
2019/09/14 07:57:12;;;;;;;5.7;4.4;;;;;;;18.28;87.7041;974.4404;;;;
2019/09/14 07:59:37;;;;;;;4.8;4.1;;;;;;;18.38;86.51855;974.4077;;;;
2019/09/14 08:02:03;;;;;;;6.1;4.4;;;;;;;18.5;85.70898;974.3778;;;;
2019/09/14 08:04:28;;;;;;;6.1;4.7;;;;;;;18.3;86.1748;974.3786;;;;
2019/09/14 08:06:53;;;;;;;5.9;4.6;;;;;;;18.36;85.86914;974.343;;;;
2019/09/14 08:09:18;;;;;;;7.2;4.4;;;;;;;18.42;85.43555;974.2975;;;;
2019/09/14 08:11:43;;;;;;;4.9;4.4;;;;;;;18.54;85.80957;974.275;;;;
2019/09/14 08:14:08;;;;;;;6.4;4.6;;;;;;;18.56;85.31152;974.3314;;;;
2019/09/14 08:16:33;;;;;;;6.7;4.9;;;;;;;18.56;85.22949;974.3058;;;;
2019/09/14 08:18:59;;;;;;;6.5;4.3;;;;;;;18.68;84.40723;974.318;;;;
2019/09/14 08:21:25;;;;;;;5.3;4.3;;;;;;;18.7;85.01074;974.3307;;;;
2019/09/14 08:26:16;;;;;;;5.7;4.7;;;;;;;18.78;84.25195;974.3423;;;;
2019/09/14 08:28:40;;;;;;;5.4;4.6;;;;;;;18.89;83.60254;974.2875;;;;
2019/09/14 08:31:05;;;;;;;5.9;4.3;;;;;;;18.94;83.89551;974.2715;;;;
2019/09/14 08:33:30;;;;;;;6.1;4.5;;;;;;;18.99;83.9375;974.2603;;;;
2019/09/14 08:35:55;;;;;;;5.6;4.4;;;;;;;18.98;84.38379;974.2479;;;;
2019/09/14 08:38:21;;;;;;;5.6;4.5;;;;;;;19.02;83.37012;974.2101;;;;
2019/09/14 08:40:46;;;;;;;6.6;4.6;;;;;;;19.06;82.56836;974.2397;;;;
2019/09/14 08:43:11;;;;;;;5.8;4.4;;;;;;;19.18;82.14551;974.2548;;;;
2019/09/14 08:45:37;;;;;;;5.4;4.5;;;;;;;19.28;82.94922;974.2704;;;;
2019/09/14 08:48:02;;;;;;;5.3;4.3;;;;;;;19.36;82.20313;974.2597;;;;
2019/09/14 08:50:27;;;;;;;5.3;4.3;;;;;;;19.45;81.60645;974.2737;;;;
2019/09/14 08:52:53;;;;;;;5.6;4.4;;;;;;;19.42;81.89551;974.2668;;;;
2019/09/14 08:55:18;;;;;;;4.4;4;;;;;;;19.52;81.17578;974.2725;;;;
2019/09/14 08:57:43;;;;;;;7.2;4.1;;;;;;;19.56;80.34668;974.2355;;;;
2019/09/14 09:00:08;;;;;;;4.9;3.9;;;;;;;19.54;79.75684;974.1983;;;;
2019/09/14 09:02:33;;;;;;;4.8;3.7;;;;;;;19.48;79.09961;974.1275;;;;
2019/09/14 09:04:58;;;;;;;4.4;3.8;;;;;;;19.62;79.26465;974.1523;;;;
2019/09/14 09:07:23;;;;;;;4.5;3.7;;;;;;;19.78;78.98828;974.192;;;;
2019/09/14 09:09:49;;;;;;;5.4;3.8;;;;;;;19.82;80.34766;974.2186;;;;
2019/09/14 09:12:14;;;;;;;5.7;3.9;;;;;;;19.69;78.85449;974.1873;;;;
2019/09/14 09:14:39;;;;;;;5.2;3.5;;;;;;;19.71;79.26953;974.1342;;;;
2019/09/14 09:17:04;;;;;;;5.1;3.5;;;;;;;19.72;78.66016;974.046;;;;
2019/09/14 09:19:30;;;;;;;4.9;3.8;;;;;;;19.83;78.03418;974.0167;;;;
2019/09/14 09:21:55;;;;;;;4.7;3.4;;;;;;;19.9;79.25781;974.0273;;;;
2019/09/14 09:24:20;;;;;;;5.7;4;;;;;;;19.94;78.40527;974.0142;;;;
2019/09/14 09:26:45;;;;;;;4;3.6;;;;;;;19.86;78.87305;973.9783;;;;
2019/09/14 09:29:10;;;;;;;4.9;3.9;;;;;;;19.82;79.40625;973.973;;;;
2019/09/14 09:31:36;;;;;;;4.2;3.5;;;;;;;19.85;79.35352;973.925;;;;
2019/09/14 09:34:01;;;;;;;5.1;4.1;;;;;;;19.95;78.3252;973.9487;;;;
2019/09/14 09:36:26;;;;;;;5.4;3.8;;;;;;;19.98;79.2002;973.9307;;;;
2019/09/14 09:38:51;;;;;;;3.9;3.5;;;;;;;20.08;78.12402;973.895;;;;
2019/09/14 09:41:16;;;;;;;4.1;3.3;;;;;;;20.11;77.08301;973.8553;;;;
2019/09/14 09:43:42;;;;;;;5.8;3.7;;;;;;;20.28;75.66504;973.8477;;;;
2019/09/14 09:46:08;;;;;;;4.1;3.6;;;;;;;20.44;76.04492;973.8459;;;;
2019/09/14 09:48:33;;;;;;;3.9;3.5;;;;;;;20.36;77.08008;973.8406;;;;
2019/09/14 09:50:58;;;;;;;3.6;2.9;;;;;;;20.43;76.00879;973.8228;;;;
2019/09/14 09:53:23;;;;;;;5.2;3.9;;;;;;;20.44;76.18555;973.8385;;;;
2019/09/14 09:55:48;;;;;;;4.8;3.8;;;;;;;20.44;76.19727;973.7988;;;;
2019/09/14 09:58:13;;;;;;;4.6;3.7;;;;;;;20.42;77.09082;973.7977;;;;
2019/09/14 10:00:38;;;;;;;5.3;3.6;;;;;;;20.45;76.43652;973.7431;;;;
2019/09/14 10:03:03;;;;;;;5.1;3.9;;;;;;;20.56;76.26758;973.7241;;;;
2019/09/14 10:05:29;;;;;;;4.9;3.7;;;;;;;20.58;75.24512;973.6253;;;;
2019/09/14 10:07:54;;;;;;;5.5;3.4;;;;;;;20.57;75.62012;973.6461;;;;
2019/09/14 10:10:19;;;;;;;4.9;3.3;;;;;;;20.57;74.7959;973.5856;;;;
2019/09/14 10:12:44;;;;;;;4.7;3.9;;;;;;;20.7;74.81738;973.6588;;;;
2019/09/14 10:15:09;;;;;;;5.8;3.9;;;;;;;20.73;75.53027;973.6342;;;;
2019/09/14 10:17:34;;;;;;;4.7;3.9;;;;;;;20.76;75.18066;973.6058;;;;
2019/09/14 10:19:59;;;;;;;5.7;3.8;;;;;;;20.81;75.28418;973.5272;;;;
2019/09/14 10:22:25;;;;;;;6.4;3.8;;;;;;;20.66;76.02539;973.5684;;;;
2019/09/14 10:24:50;;;;;;;4.8;4.2;;;;;;;20.78;74.95996;973.4609;;;;
2019/09/14 10:27:15;;;;;;;5;3.8;;;;;;;20.87;73.49219;973.4693;;;;
2019/09/14 10:29:40;;;;;;;5.7;3.7;;;;;;;20.88;74.81348;973.4653;;;;
2019/09/14 10:32:06;;;;;;;3.4;3.1;;;;;;;20.96;73.91992;973.4113;;;;
2019/09/14 10:34:31;;;;;;;4.3;3.3;;;;;;;21.02;72.53809;973.3674;;;;
2019/09/14 10:36:56;;;;;;;4.2;3.1;;;;;;;21.02;72.31543;973.4197;;;;
2019/09/14 10:39:21;;;;;;;5.6;3.5;;;;;;;20.92;73.87695;973.4255;;;;
2019/09/14 10:41:46;;;;;;;4.9;3.3;;;;;;;20.89;73.88281;973.4172;;;;
2019/09/14 10:44:11;;;;;;;4.6;3.4;;;;;;;20.98;72.52051;973.4155;;;;
2019/09/14 10:46:37;;;;;;;4.1;3.1;;;;;;;21.04;73.34277;973.4405;;;;
2019/09/14 10:49:02;;;;;;;5;3.8;;;;;;;21.04;72.87207;973.3948;;;;
2019/09/14 10:51:27;;;;;;;5.2;3.4;;;;;;;20.99;74.54883;973.3815;;;;
2019/09/14 10:53:53;;;;;;;4.5;3.3;;;;;;;21.08;75.4375;973.2977;;;;
2019/09/14 10:56:17;;;;;;;5;3.9;;;;;;;21.08;71.8877;973.3575;;;;
2019/09/14 10:58:43;;;;;;;3.6;3.3;;;;;;;21.16;73.29199;973.3003;;;;
2019/09/14 11:01:08;;;;;;;5.3;3;;;;;;;21.33;72.16406;973.3133;;;;
2019/09/14 11:03:34;;;;;;;4.9;3.2;;;;;;;21.25;73.1416;973.2946;;;;
2019/09/14 11:05:59;;;;;;;4.4;3.4;;;;;;;21.28;73.16992;973.287;;;;
2019/09/14 11:08:24;;;;;;;4.8;3.4;;;;;;;21.39;72.31445;973.3094;;;;
2019/09/14 11:10:49;;;;;;;6.2;3.9;;;;;;;21.39;72.23242;973.2614;;;;
2019/09/14 11:13:15;;;;;;;5.3;3.9;;;;;;;21.3;72.57324;973.2721;;;;
2019/09/14 11:15:40;;;;;;;4;3.6;;;;;;;21.21;72.72363;973.2647;;;;
2019/09/14 11:18:05;;;;;;;4.1;3.7;;;;;;;21.22;73.52637;973.2514;;;;
2019/09/14 11:20:30;;;;;;;5.1;3.4;;;;;;;21.33;73.23828;973.2206;;;;
2019/09/14 11:22:55;;;;;;;4.7;3.7;;;;;;;21.19;73.01563;973.2489;;;;
2019/09/14 11:25:20;;;;;;;5.4;4.9;;;;;;;21.06;73.18164;973.2173;;;;
2019/09/14 11:27:45;;;;;;;5.1;4.2;;;;;;;20.92;74.09082;973.2307;;;;
2019/09/14 11:30:11;;;;;;;5;3.6;;;;;;;21.13;73.62793;973.2299;;;;
2019/09/14 11:32:36;;;;;;;5;4;;;;;;;21.08;73.33789;973.1975;;;;
2019/09/14 11:35:01;;;;;;;7.7;4;;;;;;;21.09;73.55176;973.2283;;;;
2019/09/14 11:37:26;;;;;;;4.6;4.1;;;;;;;21.07;74.0791;973.2034;;;;
2019/09/14 11:39:51;;;;;;;5;3.8;;;;;;;21.11;74.14551;973.1841;;;;
2019/09/14 11:42:16;;;;;;;7.4;4.2;;;;;;;21.17;73.24805;973.1808;;;;
2019/09/14 11:44:42;;;;;;;3.6;3.3;;;;;;;21.29;73.23047;973.0895;;;;
2019/09/14 11:47:07;;;;;;;4.1;3.4;;;;;;;21.36;73.12598;973.0916;;;;
2019/09/14 11:49:32;;;;;;;4.6;3.5;;;;;;;21.33;71.97559;973.091;;;;
2019/09/14 11:51:57;;;;;;;4.8;3.8;;;;;;;21.41;71.06836;973.0647;;;;
2019/09/14 11:54:23;;;;;;;5.3;3.7;;;;;;;21.35;71.47168;973.043;;;;
2019/09/14 11:56:48;;;;;;;6.8;3.9;;;;;;;21.5;71.52148;972.9326;;;;
2019/09/14 11:59:13;;;;;;;6.9;3.9;;;;;;;21.71;70.89355;972.9138;;;;
2019/09/14 12:01:48;;;;;;;4.4;3.7;;;;;;;21.79;70.0918;972.9079;;;;
2019/09/14 12:06:38;;;;;;;5.6;3.2;;;;;;;21.81;70.73047;972.8835;;;;
2019/09/14 12:09:08;;;;;;;3.1;2.7;;;;;;;21.81;70.04688;972.863;;;;
2019/09/14 12:11:28;;;;;;;4.7;2.7;;;;;;;21.94;69.82031;972.8657;;;;
2019/09/14 12:13:53;;;;;;;4.2;3.1;;;;;;;22.06;68.58594;972.8577;;;;
2019/09/14 12:16:19;;;;;;;3.6;3.1;;;;;;;21.99;69.32031;972.8431;;;;
2019/09/14 12:18:44;;;;;;;5;3.8;;;;;;;21.7;69.0498;972.8159;;;;
2019/09/14 12:21:10;;;;;;;4.4;3.3;;;;;;;21.85;69.34277;972.8488;;;;
2019/09/14 12:23:35;;;;;;;4.8;3.1;;;;;;;21.81;70.29492;972.8049;;;;
2019/09/14 12:26:00;;;;;;;5.8;3.5;;;;;;;21.81;69.2793;972.7933;;;;
2019/09/14 12:28:26;;;;;;;3.4;3.1;;;;;;;21.8;68.89844;972.7683;;;;
2019/09/14 12:30:51;;;;;;;5.4;2.9;;;;;;;21.65;69.5625;972.7405;;;;
2019/09/14 12:33:17;;;;;;;5.4;3;;;;;;;21.69;68.88184;972.6925;;;;
2019/09/14 12:35:42;;;;;;;4.9;3.5;;;;;;;21.56;68.82617;972.6886;;;;
2019/09/14 12:38:07;;;;;;;4;3.3;;;;;;;21.64;67.97754;972.6378;;;;
2019/09/14 12:40:33;;;;;;;3.7;2.9;;;;;;;21.75;68.13574;972.601;;;;
2019/09/14 12:42:58;;;;;;;3.7;2.6;;;;;;;21.81;67.6377;972.5658;;;;
2019/09/14 12:45:23;;;;;;;4.2;2.7;;;;;;;21.81;68.29883;972.5435;;;;
2019/09/14 12:48:09;;;;;;;4.8;2.9;;;;;;;21.91;67.8291;972.4758;;;;
2019/09/14 12:50:34;;;;;;;3.9;2.5;;;;;;;22.14;65.34863;972.4189;;;;
2019/09/14 12:52:59;;;;;;;3.2;2.4;;;;;;;22.28;65.55859;972.4348;;;;
2019/09/14 12:55:24;;;;;;;3.4;2.5;;;;;;;22.3;66.97852;972.4788;;;;
2019/09/14 12:57:50;;;;;;;4.9;2.8;;;;;;;22.21;66.44629;972.4568;;;;
2019/09/14 13:00:15;;;;;;;4.3;2.8;;;;;;;22.09;66.29785;972.3992;;;;
2019/09/14 13:02:40;;;;;;;3.9;2.8;;;;;;;21.96;66.43262;972.4073;;;;
2019/09/14 13:05:05;;;;;;;4.4;2.8;;;;;;;22.16;66.04883;972.4011;;;;
2019/09/14 13:07:30;;;;;;;6.2;2.8;;;;;;;22.19;65.70996;972.4045;;;;
2019/09/14 13:09:56;;;;;;;4;2.8;;;;;;;22.22;65.40625;972.3762;;;;
2019/09/14 13:12:21;;;;;;;2.9;2.6;;;;;;;22.24;65.56445;972.3611;;;;
2019/09/14 13:14:46;;;;;;;2.9;2.6;;;;;;;22.44;64.94336;972.3592;;;;
2019/09/14 13:17:12;;;;;;;5.2;2.7;;;;;;;22.31;65.95313;972.3507;;;;
2019/09/14 13:19:37;;;;;;;4;3.3;;;;;;;22.36;66.00879;972.338;;;;
2019/09/14 13:22:03;;;;;;;3.3;2.9;;;;;;;22.39;65.33789;972.386;;;;
2019/09/14 13:24:28;;;;;;;3.9;2.9;;;;;;;22.43;64.7168;972.335;;;;
2019/09/14 13:26:53;;;;;;;3.5;2.9;;;;;;;22.52;64.19727;972.2927;;;;
2019/09/14 13:29:19;;;;;;;4.6;2.8;;;;;;;22.57;65.04492;972.2949;;;;
2019/09/14 13:31:44;;;;;;;5.3;2.4;;;;;;;22.6;65.32129;972.2731;;;;
2019/09/14 13:34:09;;;;;;;5.6;2.6;;;;;;;22.36;66.37305;972.2891;;;;
2019/09/14 13:36:34;;;;;;;3.4;2.6;;;;;;;22.39;64.86523;972.2729;;;;
2019/09/14 13:38:59;;;;;;;4.5;2.8;;;;;;;22.29;65.05078;972.2938;;;;
2019/09/14 13:41:24;;;;;;;4.1;2.7;;;;;;;22.13;64.96777;972.3256;;;;
2019/09/14 13:43:49;;;;;;;3.4;2.6;;;;;;;22.07;65.00781;972.3253;;;;
2019/09/14 13:46:14;;;;;;;3.5;2.2;;;;;;;22.05;63.69336;972.3056;;;;
2019/09/14 13:48:39;;;;;;;2.5;2.1;;;;;;;22.09;64.56055;972.2647;;;;
2019/09/14 13:51:04;;;;;;;3.1;2.1;;;;;;;22.27;62.99121;972.2555;;;;
2019/09/14 13:53:29;;;;;;;3.7;1.9;;;;;;;22.38;62.5332;972.2708;;;;
2019/09/14 13:55:54;;;;;;;3.1;2.3;;;;;;;22.29;62.7334;972.2629;;;;
2019/09/14 13:58:20;;;;;;;3;2.2;;;;;;;22.37;62.48535;972.2664;;;;
2019/09/14 14:03:09;;;;;;;3.9;2.4;;;;;;;22.55;61.42285;972.1498;;;;
2019/09/14 14:05:35;;;;;;;3.7;1.9;;;;;;;22.61;61.75;972.1233;;;;
2019/09/14 14:08:00;;;;;;;2.6;1.9;;;;;;;22.68;61.87793;972.069;;;;
2019/09/14 14:10:25;;;;;;;3.2;2;;;;;;;22.52;61.26465;972.1099;;;;
2019/09/14 14:12:50;;;;;;;2.2;1.9;;;;;;;22.45;60.21387;972.0125;;;;
2019/09/14 14:15:15;;;;;;;2.9;1.8;;;;;;;22.6;62.63574;971.9897;;;;
2019/09/14 14:17:40;;;;;;;3.2;1.9;;;;;;;22.51;62.81348;971.9655;;;;
2019/09/14 14:20:05;;;;;;;2.3;1.6;;;;;;;22.7;58.66211;972.0344;;;;
2019/09/14 14:22:30;;;;;;;3.6;1.4;;;;;;;22.61;58.86328;971.9164;;;;
2019/09/14 14:24:55;;;;;;;2.1;1.6;;;;;;;22.65;59.99316;971.9562;;;;
2019/09/14 14:27:20;;;;;;;3.5;2.1;;;;;;;22.68;61.6416;971.9459;;;;
2019/09/14 14:29:45;;;;;;;3.4;1.8;;;;;;;22.77;62.01074;971.9673;;;;
2019/09/14 14:32:10;;;;;;;3.8;2.2;;;;;;;22.84;62.58691;971.9717;;;;
2019/09/14 14:34:35;;;;;;;2.9;1.8;;;;;;;22.82;61.28125;971.9063;;;;
2019/09/14 14:37:01;;;;;;;3.2;1.8;;;;;;;22.8;61.39844;971.9622;;;;
2019/09/14 14:39:26;;;;;;;2.4;1.6;;;;;;;22.74;61.56738;971.8655;;;;
2019/09/14 14:41:52;;;;;;;2.5;1.9;;;;;;;22.49;62.97461;971.7903;;;;
2019/09/14 14:44:17;;;;;;;3.2;1.8;;;;;;;22.51;61.00391;971.7792;;;;
2019/09/14 14:46:42;;;;;;;2.4;1.7;;;;;;;22.39;61.98047;971.7661;;;;
2019/09/14 14:49:07;;;;;;;2.8;1.5;;;;;;;22.34;61.25195;971.7374;;;;
2019/09/14 14:51:32;;;;;;;2.3;1.8;;;;;;;22.26;61.3584;971.7191;;;;
2019/09/14 14:53:57;;;;;;;4;1.7;;;;;;;22.2;61.0918;971.7219;;;;
2019/09/14 14:56:22;;;;;;;2.1;1.6;;;;;;;22.17;61.4541;971.8044;;;;
2019/09/14 14:58:47;;;;;;;2.8;1.7;;;;;;;22.21;62.12109;971.7342;;;;
2019/09/14 15:01:12;;;;;;;2.9;1.7;;;;;;;22.16;62.58496;971.7458;;;;
2019/09/14 15:03:37;;;;;;;3.5;1.8;;;;;;;22.04;63.96387;971.7167;;;;
2019/09/14 15:06:03;;;;;;;2.5;1.9;;;;;;;22.1;62.64844;971.6915;;;;
2019/09/14 15:08:28;;;;;;;3.1;1.7;;;;;;;22.24;61.50977;971.6559;;;;
2019/09/14 15:10:53;;;;;;;4.2;1.9;;;;;;;22.22;62.3457;971.6627;;;;
2019/09/14 15:13:18;;;;;;;1.8;1.6;;;;;;;22.3;61.18652;971.683;;;;
2019/09/14 15:15:43;;;;;;;4.1;1.8;;;;;;;22.28;63.14746;971.697;;;;
2019/09/14 15:18:08;;;;;;;2.5;1.9;;;;;;;22.26;64.46777;971.665;;;;
2019/09/14 15:20:33;;;;;;;3.2;2.1;;;;;;;22.2;64.81445;971.6174;;;;
2019/09/14 15:22:58;;;;;;;2.7;1.8;;;;;;;22.25;63.80469;971.6516;;;;
2019/09/14 15:25:23;;;;;;;3;1.8;;;;;;;22.27;63.88867;971.6177;;;;
2019/09/14 15:27:48;;;;;;;3.5;1.8;;;;;;;22.33;62.64551;971.5939;;;;
2019/09/14 15:30:13;;;;;;;2.4;1.9;;;;;;;22.31;63.39941;971.5681;;;;
2019/09/14 15:32:38;;;;;;;3.9;1.8;;;;;;;22.33;63.53223;971.5689;;;;
2019/09/14 15:35:04;;;;;;;2.9;1.9;;;;;;;22.34;62.54004;971.5129;;;;
2019/09/14 15:37:29;;;;;;;4.5;1.9;;;;;;;22.31;60.68066;971.5;;;;
2019/09/14 15:39:54;;;;;;;3.2;1.6;;;;;;;22.27;61.44238;971.488;;;;
2019/09/14 15:42:19;;;;;;;2.8;1.9;;;;;;;22.13;62.93555;971.443;;;;
2019/09/14 15:44:44;;;;;;;3.3;1.7;;;;;;;22.09;61.92578;971.4375;;;;
2019/09/14 15:47:09;;;;;;;2;1.7;;;;;;;22.18;61.22949;971.472;;;;
2019/09/14 15:49:34;;;;;;;3.7;1.6;;;;;;;21.9;64.62695;971.4572;;;;
2019/09/14 15:51:59;;;;;;;1.6;1.5;;;;;;;22.02;62.22363;971.4406;;;;
2019/09/14 15:54:24;;;;;;;1.7;1.6;;;;;;;21.89;63.61133;971.5308;;;;
2019/09/14 15:56:49;;;;;;;2.5;1.6;;;;;;;21.94;63.00293;971.4933;;;;
2019/09/14 15:59:14;;;;;;;2.3;1.8;;;;;;;21.87;63.64258;971.4864;;;;
2019/09/14 16:01:40;;;;;;;1.9;1.7;;;;;;;21.87;63.37109;971.4822;;;;
2019/09/14 16:04:05;;;;;;;3.6;1.9;;;;;;;21.75;64.33398;971.4995;;;;
2019/09/14 16:06:30;;;;;;;2.1;1.7;;;;;;;21.8;63.14844;971.5804;;;;
2019/09/14 16:08:55;;;;;;;2.1;1.8;;;;;;;21.67;67.19141;971.5505;;;;
2019/09/14 16:11:20;;;;;;;3.6;2;;;;;;;21.6;65.90527;971.51;;;;
2019/09/14 16:13:45;;;;;;;2;1.8;;;;;;;21.42;68.0752;971.5219;;;;
2019/09/14 16:16:10;;;;;;;2.4;1.9;;;;;;;21.46;66.72168;971.6105;;;;
2019/09/14 16:18:35;;;;;;;2.5;1.8;;;;;;;21.51;65.88086;971.5662;;;;
2019/09/14 16:21:01;;;;;;;3.2;2.1;;;;;;;21.4;66.67871;971.5858;;;;
2019/09/14 16:23:26;;;;;;;2.4;1.9;;;;;;;21.45;66.65039;971.5862;;;;
2019/09/14 16:25:51;;;;;;;2.2;2;;;;;;;21.29;69.25684;971.5625;;;;
2019/09/14 16:28:16;;;;;;;3.5;2.1;;;;;;;21.31;67.08984;971.5815;;;;
2019/09/14 16:30:41;;;;;;;3.5;2;;;;;;;21.19;67.28418;971.5829;;;;
2019/09/14 16:33:06;;;;;;;2.8;2.1;;;;;;;21.25;66.52637;971.5726;;;;
2019/09/14 16:35:32;;;;;;;2;1.8;;;;;;;21.21;66.61523;971.5688;;;;
2019/09/14 16:37:57;;;;;;;3.5;2;;;;;;;21.22;67.01758;971.5438;;;;
2019/09/14 16:40:22;;;;;;;3.3;2.1;;;;;;;21.15;66.73535;971.5923;;;;
2019/09/14 16:42:48;;;;;;;3;2;;;;;;;21.12;66.41113;971.5639;;;;
2019/09/14 16:45:13;;;;;;;2.5;2;;;;;;;21.17;66.36035;971.5489;;;;
2019/09/14 16:47:38;;;;;;;3.1;2;;;;;;;21.07;67.80762;971.517;;;;
2019/09/14 16:50:03;;;;;;;2.7;1.8;;;;;;;21.08;67.3252;971.5466;;;;
2019/09/14 16:52:28;;;;;;;3.8;1.9;;;;;;;21.05;67.33203;971.5193;;;;
2019/09/14 16:54:53;;;;;;;4;2.1;;;;;;;20.98;68.55957;971.5553;;;;
2019/09/14 16:57:18;;;;;;;3.4;2;;;;;;;21.02;67.64746;971.4913;;;;
2019/09/14 16:59:43;;;;;;;3.6;2.1;;;;;;;20.98;68.63086;971.4922;;;;
2019/09/14 17:02:08;;;;;;;2.8;1.9;;;;;;;20.93;68.1748;971.4924;;;;
2019/09/14 17:04:33;;;;;;;2.6;1.9;;;;;;;20.92;69.62305;971.5048;;;;
2019/09/14 17:06:59;;;;;;;2.3;1.7;;;;;;;20.84;70.60156;971.5165;;;;
2019/09/14 17:09:24;;;;;;;3.6;1.8;;;;;;;20.81;70.45215;971.52;;;;
2019/09/14 17:11:49;;;;;;;2;1.8;;;;;;;20.76;71.03613;971.4871;;;;
2019/09/14 17:14:14;;;;;;;3.3;2.1;;;;;;;20.75;68.99609;971.4785;;;;
2019/09/14 17:16:39;;;;;;;3.1;2.1;;;;;;;20.72;71.78223;971.4646;;;;
2019/09/14 17:19:05;;;;;;;2.4;2;;;;;;;20.6;73.4834;971.4846;;;;
2019/09/14 17:21:30;;;;;;;2.4;2;;;;;;;20.53;72.09375;971.5179;;;;
2019/09/14 17:23:56;;;;;;;2.5;2.2;;;;;;;20.55;73.32129;971.4849;;;;
2019/09/14 17:26:21;;;;;;;3.2;2.2;;;;;;;20.46;74.4248;971.4669;;;;
2019/09/14 17:28:47;;;;;;;3.3;2.4;;;;;;;20.3;75.97559;971.4894;;;;
2019/09/14 17:31:12;;;;;;;3.9;2.5;;;;;;;20.24;75.79883;971.5209;;;;
2019/09/14 17:33:37;;;;;;;4.1;2.7;;;;;;;20.23;72.6084;971.5458;;;;
2019/09/14 17:36:02;;;;;;;5;2.8;;;;;;;20.32;70.68164;971.5583;;;;
2019/09/14 17:38:27;;;;;;;4.6;2.7;;;;;;;20.33;71.24902;971.5764;;;;
2019/09/14 17:40:53;;;;;;;5.1;2.7;;;;;;;20.36;71.13574;971.6029;;;;
2019/09/14 17:43:18;;;;;;;5.1;3.1;;;;;;;20.41;69.67285;971.6236;;;;
2019/09/14 17:45:43;;;;;;;4.6;2.6;;;;;;;20.43;69.78027;971.5722;;;;
2019/09/14 17:48:22;;;;;;;5.8;2.9;;;;;;;20.45;70.0791;971.5871;;;;
2019/09/14 17:52:59;;;;;;;6.4;2.8;;;;;;;20.39;70.23438;971.7106;;;;
2019/09/14 17:55:24;;;;;;;5.1;3;;;;;;;20.45;69.65527;971.6592;;;;
2019/09/14 17:57:50;;;;;;;3.7;2.6;;;;;;;20.45;69.34961;971.6816;;;;
2019/09/14 18:00:21;;;;;;;4.4;2.7;;;;;;;20.45;69.71387;971.7238;;;;
2019/09/14 18:02:40;;;;;;;4;2.7;;;;;;;20.45;69.66602;971.6931;;;;
2019/09/14 18:05:05;;;;;;;6.2;2.9;;;;;;;20.38;70.23242;971.6875;;;;
2019/09/14 18:07:31;;;;;;;5.5;2.9;;;;;;;20.26;70.94336;971.6691;;;;
2019/09/14 18:09:56;;;;;;;3.3;2.6;;;;;;;20.18;72.56445;971.6657;;;;
2019/09/14 18:12:21;;;;;;;4.2;3;;;;;;;20.14;73.45313;971.6633;;;;
2019/09/14 18:14:47;;;;;;;6.6;3.2;;;;;;;20.16;73.72754;971.6278;;;;
2019/09/14 18:17:13;;;;;;;4.4;3;;;;;;;20.07;75.1709;971.658;;;;
2019/09/14 18:19:38;;;;;;;3.9;3.3;;;;;;;19.94;75.74805;971.7332;;;;
2019/09/14 18:22:03;;;;;;;3.8;3.3;;;;;;;19.86;77.18066;971.7456;;;;
2019/09/14 18:24:28;;;;;;;7.2;3.6;;;;;;;19.71;78.29395;971.7325;;;;
2019/09/14 18:26:53;;;;;;;5.5;4.1;;;;;;;19.61;78.45215;971.7205;;;;
2019/09/14 18:29:18;;;;;;;4.5;3.9;;;;;;;19.66;76.68652;971.6616;;;;
2019/09/14 18:31:43;;;;;;;5.5;3.9;;;;;;;19.53;78.01563;971.6806;;;;
2019/09/14 18:34:09;;;;;;;6.8;4.2;;;;;;;19.49;78.80762;971.6746;;;;
2019/09/14 18:36:34;;;;;;;6.6;4.5;;;;;;;19.35;79.38281;971.6767;;;;
2019/09/14 18:38:59;;;;;;;4.7;4;;;;;;;19.49;77.98535;971.7383;;;;
2019/09/14 18:41:24;;;;;;;5.8;4.4;;;;;;;19.48;78.98047;971.7053;;;;
2019/09/14 18:43:49;;;;;;;7.2;4.8;;;;;;;19.39;79.51855;971.7313;;;;
2019/09/14 18:46:15;;;;;;;7.1;4.6;;;;;;;19.32;79.76367;971.7614;;;;
2019/09/14 18:48:40;;;;;;;7.5;5;;;;;;;19.24;80.08984;971.7158;;;;
2019/09/14 18:51:05;;;;;;;7;5.4;;;;;;;19.12;78.41211;971.6722;;;;
2019/09/14 18:53:31;;;;;;;7.1;5.8;;;;;;;19.29;77.18555;971.6298;;;;
2019/09/14 18:58:22;;;;;;;8.4;5.6;;;;;;;19.25;79.52734;971.5785;;;;
2019/09/14 19:00:47;;;;;;;5.8;5.2;;;;;;;19.12;80.41895;971.5804;;;;
2019/09/14 19:03:12;;;;;;;6.5;5.5;;;;;;;19.07;80.33984;971.5628;;;;
2019/09/14 19:05:37;;;;;;;7.3;5.5;;;;;;;18.98;81.48535;971.5359;;;;
2019/09/14 19:08:03;;;;;;;5.9;5.2;;;;;;;19.04;80.75586;971.5477;;;;
2019/09/14 19:10:28;;;;;;;6.6;5.5;;;;;;;18.97;81.43555;971.6268;;;;
2019/09/14 19:12:53;;;;;;;6.7;5.7;;;;;;;18.84;81.29688;971.53;;;;
2019/09/14 19:15:18;;;;;;;6.2;5.5;;;;;;;18.88;82.14648;971.5775;;;;
2019/09/14 19:17:43;;;;;;;6.9;5.5;;;;;;;18.78;81.83496;971.537;;;;
2019/09/14 19:20:08;;;;;;;8.5;5.5;;;;;;;18.73;82.40039;971.5433;;;;
2019/09/14 19:22:33;;;;;;;7.3;5.8;;;;;;;18.65;83.04199;971.5402;;;;
2019/09/14 19:24:58;;;;;;;6.2;5.6;;;;;;;18.66;83.57129;971.4988;;;;
2019/09/14 19:27:23;;;;;;;7.1;6;;;;;;;18.55;83.7168;971.4924;;;;
2019/09/14 19:29:48;;;;;;;7.4;6.2;;;;;;;18.55;83.5498;971.4949;;;;
2019/09/14 19:32:13;;;;;;;7.1;6;;;;;;;18.55;83.83398;971.4627;;;;
2019/09/14 19:34:39;;;;;;;7.4;5.9;;;;;;;18.53;83.25488;971.4459;;;;
2019/09/14 19:37:04;;;;;;;7.2;6;;;;;;;18.48;83.34961;971.5148;;;;
2019/09/14 19:39:29;;;;;;;8.5;5.6;;;;;;;18.49;84.76953;971.5564;;;;
2019/09/14 19:41:54;;;;;;;7.9;6.5;;;;;;;18.5;84.41992;971.5514;;;;
2019/09/14 19:44:19;;;;;;;7.6;6.1;;;;;;;18.39;84.24707;971.6206;;;;
2019/09/14 19:46:44;;;;;;;7.7;6.3;;;;;;;18.36;85.40137;971.6451;;;;
2019/09/14 19:49:09;;;;;;;7.9;6.4;;;;;;;18.34;85.23242;971.6568;;;;
2019/09/14 19:51:34;;;;;;;9.5;8.1;;;;;;;18.28;85.5957;971.6819;;;;